createdAt,value
2019-04-26T00:02:55.388Z,64.20
2019-04-26T00:06:01.071Z,64.00
2019-04-26T00:09:28.867Z,63.60
2019-04-26T00:12:51.160Z,63.60
2019-04-26T00:16:14.733Z,63.80
2019-04-26T00:19:20.470Z,63.60
2019-04-26T00:22:26.532Z,63.40
2019-04-26T00:25:32.622Z,63.10
2019-04-26T00:28:38.376Z,63.10
2019-04-26T00:31:44.341Z,63.00
2019-04-26T00:34:50.044Z,63.10
2019-04-26T00:37:55.814Z,63.00
2019-04-26T00:41:01.892Z,63.10
2019-04-26T00:44:07.843Z,62.90
2019-04-26T00:47:15.274Z,62.50
2019-04-26T00:50:21.512Z,62.50
2019-04-26T00:53:29.597Z,62.30
2019-04-26T00:56:35.960Z,62.30
2019-04-26T00:59:42.137Z,62.20
2019-04-26T01:02:51.271Z,62.10
2019-04-26T01:06:00.259Z,62.00
2019-04-26T01:09:07.086Z,61.90
2019-04-26T01:12:15.439Z,61.90
2019-04-26T01:15:22.926Z,61.70
2019-04-26T01:18:29.203Z,61.90
2019-04-26T01:21:42.012Z,61.80
2019-04-26T01:24:50.375Z,61.60
2019-04-26T01:27:56.702Z,61.60
2019-04-26T01:31:04.947Z,62.70
2019-04-26T01:34:10.947Z,63.90
2019-04-26T01:37:18.141Z,65.20
2019-04-26T01:40:26.197Z,64.60
2019-04-26T01:43:53.823Z,63.60
2019-04-26T01:46:59.874Z,62.90
2019-04-26T01:50:06.749Z,62.40
2019-04-26T01:53:12.551Z,62.10
2019-04-26T01:56:20.853Z,62.00
2019-04-26T01:59:27.600Z,61.90
2019-04-26T02:02:56.321Z,61.80
2019-04-26T02:06:02.082Z,61.60
2019-04-26T02:09:09.538Z,61.50
2019-04-26T02:12:15.501Z,61.20
2019-04-26T02:15:24.488Z,61.30
2019-04-26T02:18:31.473Z,61.20
2019-04-26T02:21:50.301Z,60.90
2019-04-26T02:24:56.464Z,60.90
2019-04-26T02:28:02.667Z,60.90
2019-04-26T02:31:08.376Z,60.80
2019-04-26T02:34:15.856Z,60.70
2019-04-26T02:37:21.616Z,60.70
2019-04-26T02:40:28.116Z,60.70
2019-04-26T02:43:37.235Z,60.50
2019-04-26T02:46:53.308Z,60.60
2019-04-26T02:50:02.548Z,60.50
2019-04-26T02:53:35.365Z,60.30
2019-04-26T02:56:45.158Z,60.30
2019-04-26T02:59:54.271Z,60.20
2019-04-26T03:03:04.712Z,60.30
2019-04-26T03:06:10.672Z,60.10
2019-04-26T03:09:17.939Z,60.00
2019-04-26T03:12:27.634Z,60.00
2019-04-26T03:15:57.791Z,59.90
2019-04-26T03:19:19.798Z,59.90
2019-04-26T03:23:07.200Z,59.80
2019-04-26T03:26:44.521Z,59.70
2019-04-26T03:30:20.953Z,59.70
2019-04-26T03:33:53.613Z,59.70
2019-04-26T03:37:36.531Z,59.70
2019-04-26T03:40:55.230Z,59.50
2019-04-26T03:44:16.560Z,59.50
2019-04-26T03:47:25.798Z,59.50
2019-04-26T03:50:42.773Z,59.50
2019-04-26T03:53:56.269Z,59.40
2019-04-26T03:57:20.680Z,59.40
2019-04-26T04:00:50.220Z,59.30
2019-04-26T04:04:01.125Z,59.60
2019-04-26T04:07:10.068Z,60.00
2019-04-26T04:10:19.919Z,60.10
2019-04-26T04:13:45.485Z,60.20
2019-04-26T04:17:01.398Z,60.20
2019-04-26T04:21:12.619Z,59.50
2019-04-26T04:24:48.717Z,59.00
2019-04-26T04:28:19.430Z,57.80
2019-04-26T04:31:32.552Z,56.70
2019-04-26T04:34:44.013Z,56.50
2019-04-26T04:38:09.456Z,56.40
2019-04-26T04:41:30.172Z,56.20
2019-04-26T04:45:27.475Z,55.90
2019-04-26T04:49:09.440Z,55.60
2019-04-26T04:53:11.100Z,55.40
2019-04-26T04:57:02.958Z,55.10
2019-04-26T05:00:34.516Z,54.70
2019-04-26T05:04:06.159Z,54.60
2019-04-26T05:07:36.315Z,54.10
2019-04-26T05:10:50.179Z,54.00
2019-04-26T05:14:06.332Z,53.70
2019-04-26T05:17:39.636Z,54.80
2019-04-26T05:20:58.395Z,54.40
2019-04-26T05:24:17.225Z,59.80
2019-04-26T05:27:57.172Z,57.60
2019-04-26T05:31:16.297Z,58.90
2019-04-26T05:34:36.487Z,57.70
2019-04-26T05:38:20.032Z,58.10
2019-04-26T05:41:57.915Z,57.60
2019-04-26T05:46:06.787Z,56.40
2019-04-26T05:49:50.221Z,56.80
2019-04-26T05:53:48.521Z,57.50
2019-04-26T05:57:26.158Z,57.80
2019-04-26T06:01:16.151Z,57.90
2019-04-26T06:04:50.817Z,58.00
2019-04-26T06:08:31.377Z,57.90
2019-04-26T06:11:48.205Z,58.00
2019-04-26T06:15:27.364Z,56.70
2019-04-26T06:18:49.443Z,56.80
2019-04-26T06:22:14.479Z,57.30
2019-04-26T06:25:58.290Z,58.60
2019-04-26T06:29:07.371Z,59.00
2019-04-26T06:32:28.753Z,59.60
2019-04-26T06:35:37.500Z,59.80
2019-04-26T06:39:32.314Z,60.20
2019-04-26T06:43:30.572Z,60.60
2019-04-26T06:47:06.684Z,60.90
2019-04-26T06:50:26.251Z,61.30
2019-04-26T06:54:13.470Z,61.60
2019-04-26T06:57:52.027Z,61.70
2019-04-26T07:01:27.670Z,61.90
2019-04-26T07:05:15.394Z,62.30
2019-04-26T07:08:42.234Z,62.40
2019-04-26T07:12:38.808Z,62.90
2019-04-26T07:16:00.297Z,63.20
2019-04-26T07:19:20.148Z,58.50
2019-04-26T07:23:01.975Z,57.10
2019-04-26T07:26:40.324Z,56.80
2019-04-26T07:30:22.920Z,59.10
2019-04-26T07:34:07.282Z,57.60
2019-04-26T07:38:11.094Z,57.00
2019-04-26T07:41:54.703Z,56.60
2019-04-26T07:45:44.022Z,56.60
2019-04-26T07:49:39.353Z,56.70
2019-04-26T07:53:50.607Z,56.70
2019-04-26T07:57:40.731Z,56.70
2019-04-26T08:00:54.887Z,57.50
2019-04-26T08:04:07.404Z,56.70
2019-04-26T08:07:23.096Z,56.40
2019-04-26T08:10:30.927Z,56.30
2019-04-26T08:13:41.616Z,56.30
2019-04-26T08:17:28.772Z,56.30
2019-04-26T08:20:43.476Z,56.50
2019-04-26T08:24:05.209Z,56.50
2019-04-26T08:27:23.754Z,56.50
2019-04-26T08:30:29.795Z,56.30
2019-04-26T08:33:48.600Z,56.50
2019-04-26T08:37:13.376Z,56.40
2019-04-26T08:40:30.268Z,56.30
2019-04-26T08:43:49.487Z,56.20
2019-04-26T08:47:16.775Z,56.30
2019-04-26T08:50:33.223Z,56.60
2019-04-26T08:53:42.378Z,56.30
2019-04-26T08:56:52.489Z,56.30
2019-04-26T09:00:00.295Z,56.40
2019-04-26T09:03:41.393Z,56.50
2019-04-26T09:07:13.340Z,56.70
2019-04-26T09:10:22.315Z,56.50
2019-04-26T09:13:32.042Z,56.60
2019-04-26T09:16:49.628Z,56.50
2019-04-26T09:19:45.491Z,56.40
2019-04-26T09:23:13.516Z,56.30
2019-04-26T09:26:29.891Z,56.20
2019-04-26T09:29:40.051Z,56.30
2019-04-26T09:33:01.999Z,56.10
2019-04-26T09:36:06.803Z,56.40
2019-04-26T09:39:12.835Z,57.00
2019-04-26T09:42:32.191Z,56.50
2019-04-26T09:46:02.979Z,56.10
2019-04-26T09:49:31.041Z,56.00
2019-04-26T09:52:42.900Z,56.00
2019-04-26T09:55:48.712Z,56.00
2019-04-26T09:58:54.708Z,55.80
2019-04-26T10:02:00.776Z,55.80
2019-04-26T10:05:08.052Z,55.70
2019-04-26T10:08:15.564Z,56.20
2019-04-26T10:11:23.264Z,56.50
2019-04-26T10:14:46.481Z,56.30
2019-04-26T10:17:52.287Z,55.90
2019-04-26T10:20:58.144Z,55.60
2019-04-26T10:24:04.173Z,55.20
2019-04-26T10:27:10.156Z,55.20
2019-04-26T10:30:17.143Z,55.30
2019-04-26T10:33:23.013Z,55.60
2019-04-26T10:36:30.091Z,55.70
2019-04-26T10:39:37.061Z,55.80
2019-04-26T10:42:43.193Z,56.30
2019-04-26T10:45:53.640Z,56.20
2019-04-26T10:49:24.672Z,56.30
2019-04-26T10:52:56.335Z,56.40
2019-04-26T10:56:24.226Z,56.60
2019-04-26T10:59:32.974Z,56.70
2019-04-26T11:02:38.981Z,56.70
2019-04-26T11:05:45.304Z,56.80
2019-04-26T11:08:51.405Z,56.90
2019-04-26T11:11:57.327Z,57.00
2019-04-26T11:15:06.041Z,57.00
2019-04-26T11:18:13.854Z,57.00
2019-04-26T11:21:20.809Z,57.00
2019-04-26T11:24:27.460Z,57.10
2019-04-26T11:27:33.261Z,57.30
2019-04-26T11:30:39.339Z,57.30
2019-04-26T11:33:49.422Z,57.30
2019-04-26T11:36:52.891Z,57.20
2019-04-26T11:39:59.614Z,57.20
2019-04-26T11:43:05.679Z,57.30
2019-04-26T11:46:11.896Z,57.40
2019-04-26T11:49:17.900Z,57.50
2019-04-26T11:52:23.843Z,57.60
2019-04-26T11:55:31.266Z,57.80
2019-04-26T11:58:37.311Z,57.80
2019-04-26T12:01:43.135Z,57.80
2019-04-26T12:04:55.146Z,57.80
2019-04-26T12:08:05.704Z,57.80
2019-04-26T12:11:18.358Z,57.80
2019-04-26T12:14:20.376Z,57.80
2019-04-26T12:17:27.074Z,57.80
2019-04-26T12:20:33.026Z,57.80
2019-04-26T12:23:38.680Z,57.80
2019-04-26T12:26:46.328Z,57.80
2019-04-26T12:29:52.020Z,57.80
2019-04-26T12:32:57.744Z,57.90
2019-04-26T12:36:03.903Z,57.80
2019-04-26T12:39:11.555Z,57.80
2019-04-26T12:42:17.480Z,57.90
2019-04-26T12:45:42.335Z,57.80
2019-04-26T12:48:49.936Z,57.80
2019-04-26T12:51:55.419Z,57.80
2019-04-26T12:55:01.176Z,57.80
2019-04-26T12:58:07.160Z,57.70
2019-04-26T13:01:14.355Z,57.70
2019-04-26T13:04:20.210Z,57.70
2019-04-26T13:07:26.264Z,57.70
2019-04-26T13:10:52.220Z,57.70
2019-04-26T13:14:01.532Z,57.70
2019-04-26T13:17:10.877Z,57.80
2019-04-26T13:20:16.976Z,57.80
2019-04-26T13:23:25.481Z,57.80
2019-04-26T13:26:34.782Z,57.80
2019-04-26T13:29:37.987Z,58.40
2019-04-26T13:32:43.723Z,57.80
2019-04-26T13:36:02.227Z,57.50
2019-04-26T13:38:56.977Z,57.30
2019-04-26T13:42:07.820Z,57.10
2019-04-26T13:45:40.392Z,57.20
2019-04-26T13:49:07.752Z,57.10
2019-04-26T13:52:13.746Z,57.00
2019-04-26T13:55:19.663Z,57.10
2019-04-26T13:58:25.767Z,57.10
2019-04-26T14:01:31.745Z,57.00
2019-04-26T14:04:41.130Z,56.80
2019-04-26T14:07:45.098Z,56.70
2019-04-26T14:11:11.136Z,56.70
2019-04-26T14:14:17.136Z,56.60
2019-04-26T14:17:26.046Z,56.50
2019-04-26T14:20:30.175Z,56.40
2019-04-26T14:24:00.891Z,56.30
2019-04-26T14:27:16.705Z,56.20
2019-04-26T14:30:54.101Z,56.10
2019-04-26T14:34:01.206Z,56.10
2019-04-26T14:37:11.169Z,56.00
2019-04-26T14:40:17.247Z,56.00
2019-04-26T14:43:23.577Z,55.80
2019-04-26T14:46:29.373Z,55.80
2019-04-26T14:49:39.214Z,55.80
2019-04-26T14:52:42.579Z,55.80
2019-04-26T14:55:51.184Z,55.90
2019-04-26T14:58:56.006Z,55.80
2019-04-26T15:02:22.664Z,55.80
2019-04-26T15:05:47.630Z,55.50
2019-04-26T15:08:53.819Z,55.50
2019-04-26T15:12:02.536Z,55.50
2019-04-26T15:15:07.376Z,55.40
2019-04-26T15:18:13.240Z,55.40
2019-04-26T15:21:19.114Z,55.50
2019-04-26T15:24:25.982Z,55.50
2019-04-26T15:27:32.240Z,55.40
2019-04-26T15:30:43.184Z,55.40
2019-04-26T15:33:48.741Z,55.10
2019-04-26T15:36:54.367Z,55.00
2019-04-26T15:40:10.503Z,54.70
2019-04-26T15:43:38.291Z,54.70
2019-04-26T15:47:03.939Z,54.70
2019-04-26T15:50:15.093Z,54.60
2019-04-26T15:53:22.097Z,54.60
2019-04-26T15:56:28.854Z,54.50
2019-04-26T15:59:34.855Z,54.60
2019-04-26T16:02:42.647Z,54.40
2019-04-26T16:05:49.675Z,54.30
2019-04-26T16:08:55.364Z,54.20
2019-04-26T16:12:03.355Z,54.10
2019-04-26T16:15:11.411Z,53.80
2019-04-26T16:18:17.467Z,53.80
2019-04-26T16:21:23.792Z,53.80
2019-04-26T16:24:34.181Z,53.70
2019-04-26T16:27:38.631Z,53.70
2019-04-26T16:30:57.483Z,53.60
2019-04-26T16:34:10.527Z,53.60
2019-04-26T16:37:15.043Z,53.60
2019-04-26T16:40:21.276Z,53.50
2019-04-26T16:43:37.728Z,53.50
2019-04-26T16:46:34.662Z,53.50
2019-04-26T16:49:41.919Z,53.50
2019-04-26T16:52:48.232Z,53.50
2019-04-26T16:55:53.939Z,53.60
2019-04-26T16:59:00.020Z,53.50
2019-04-26T17:02:06.258Z,53.30
2019-04-26T17:05:21.012Z,52.90
2019-04-26T17:08:20.087Z,52.80
2019-04-26T17:11:25.799Z,53.70
2019-04-26T17:14:33.973Z,54.10
2019-04-26T17:17:41.252Z,54.20
2019-04-26T17:20:48.183Z,54.40
2019-04-26T17:27:58.560Z,54.50
2019-04-26T17:31:04.523Z,54.70
2019-04-26T17:34:10.339Z,53.80
2019-04-26T17:37:17.402Z,54.80
2019-04-26T17:40:25.261Z,56.10
2019-04-26T17:43:30.759Z,55.50
2019-04-26T17:46:36.671Z,56.10
2019-04-26T17:49:44.041Z,55.50
2019-04-26T17:52:51.434Z,55.00
2019-04-26T17:55:57.266Z,55.00
2019-04-26T17:59:08.987Z,54.50
2019-04-26T18:02:20.630Z,53.80
2019-04-26T18:05:19.004Z,54.50
2019-04-26T18:08:40.683Z,54.60
2019-04-26T18:11:33.049Z,54.40
2019-04-26T18:14:38.967Z,54.30
2019-04-26T18:18:09.633Z,54.20
2019-04-26T18:21:49.557Z,54.10
2019-04-26T18:24:56.518Z,53.80
2019-04-26T18:28:02.300Z,53.70
2019-04-26T18:31:09.875Z,53.90
2019-04-26T18:34:15.659Z,53.80
2019-04-26T18:37:23.126Z,53.80
2019-04-26T18:40:29.162Z,53.80
2019-04-26T18:43:34.871Z,53.80
2019-04-26T18:47:02.799Z,53.70
2019-04-26T18:50:08.947Z,53.70
2019-04-26T18:53:39.828Z,53.70
2019-04-26T18:56:50.368Z,53.50
2019-04-26T18:59:56.119Z,53.30
2019-04-26T19:03:01.824Z,53.30
2019-04-26T19:06:07.627Z,53.20
2019-04-26T19:09:15.584Z,53.10
2019-04-26T19:12:23.260Z,53.00
2019-04-26T19:15:42.437Z,53.10
2019-04-26T19:19:07.107Z,53.00
2019-04-26T19:22:15.427Z,53.00
2019-04-26T19:25:23.119Z,52.70
2019-04-26T19:28:27.704Z,52.70
2019-04-26T19:31:33.463Z,52.80
2019-04-26T19:34:39.324Z,52.60
2019-04-26T19:37:45.074Z,52.70
2019-04-26T19:40:52.065Z,52.70
2019-04-26T19:43:57.919Z,52.70
2019-04-26T19:47:29.823Z,52.70
2019-04-26T19:50:56.629Z,52.70
2019-04-26T19:54:09.839Z,52.60
2019-04-26T19:57:24.426Z,52.60
2019-04-26T20:00:32.034Z,52.70
2019-04-26T20:03:40.632Z,52.50
2019-04-26T20:06:48.464Z,52.50
2019-04-26T20:09:56.312Z,52.50
2019-04-26T20:13:02.534Z,52.50
2019-04-26T20:16:08.470Z,52.60
2019-04-26T20:19:17.899Z,53.00
2019-04-26T20:22:28.432Z,53.30
2019-04-26T20:25:31.102Z,52.50
2019-04-26T20:28:37.500Z,52.30
2019-04-26T20:32:12.514Z,52.30
2019-04-26T20:35:26.408Z,52.20
2019-04-26T20:38:27.987Z,52.10
2019-04-26T20:41:33.883Z,51.60
2019-04-26T20:44:49.101Z,51.60
2019-04-26T20:47:51.865Z,51.90
2019-04-26T20:50:55.505Z,52.00
2019-04-26T20:54:02.383Z,51.70
2019-04-26T20:57:09.005Z,51.60
2019-04-26T21:00:15.539Z,51.40
2019-04-26T21:03:26.035Z,51.30
2019-04-26T21:20:17.354Z,51.10
2019-04-26T21:23:23.280Z,50.50
2019-04-26T21:26:54.366Z,50.50
2019-04-26T21:30:18.123Z,50.50
2019-04-26T21:33:35.404Z,50.80
2019-04-26T21:36:59.074Z,50.60
2019-04-26T21:40:27.286Z,50.00
2019-04-26T21:43:34.791Z,50.20
2019-04-26T21:46:40.836Z,50.20
2019-04-26T21:49:46.707Z,50.10
2019-04-26T21:52:54.138Z,50.20
2019-04-26T21:56:00.054Z,49.70
2019-04-26T21:59:05.714Z,49.80
2019-04-26T22:02:11.455Z,50.00
2019-04-26T22:05:18.622Z,50.20
2019-04-26T22:08:29.875Z,51.00
2019-04-26T22:11:35.782Z,51.40
2019-04-26T22:14:46.348Z,51.60
2019-04-26T22:22:44.411Z,52.10
2019-04-26T22:25:52.058Z,52.30
2019-04-26T22:29:00.151Z,52.60
2019-04-26T22:32:05.217Z,52.60
2019-04-26T22:39:39.781Z,52.80
2019-04-26T22:42:45.972Z,52.90
2019-04-26T22:46:18.579Z,53.00
2019-04-26T22:49:25.635Z,53.40
2019-04-26T22:52:33.490Z,53.20
2019-04-26T22:55:40.960Z,53.30
2019-04-26T22:58:47.539Z,53.40
2019-04-26T23:01:53.615Z,53.40
2019-04-26T23:05:00.678Z,53.40
2019-04-26T23:08:06.617Z,53.30
2019-04-26T23:11:13.917Z,53.30
2019-04-26T23:14:29.276Z,53.40
2019-04-26T23:17:55.457Z,53.30
2019-04-26T23:21:07.792Z,53.40
2019-04-26T23:24:17.542Z,53.40
2019-04-26T23:27:20.522Z,53.40
2019-04-26T23:30:27.724Z,53.40
2019-04-26T23:33:33.932Z,53.40
2019-04-26T23:36:39.404Z,53.40
2019-04-26T23:39:49.887Z,53.30
2019-04-26T23:42:54.059Z,53.40
2019-04-26T23:45:59.184Z,53.20
2019-04-26T23:49:04.724Z,53.30
2019-04-26T23:52:14.571Z,53.40
2019-04-26T23:55:20.277Z,53.40
2019-04-26T23:58:25.824Z,53.40
